Ana Sayfa
METAR-TAF:

METAR-TAF

Havaalanları :

Akabe, Ürdün

Enlem: 29-38N, Boylam: 035-01E, yükseklik: 53 m

Güncel hava durumu gözlemi

Rapor saat 09:00 UTC de 28 dakika önce yapıldı.
Rüzgar kuzeydan 20 kt
Sıcaklık 41°C
Nem 8%
Basınç 1006 hPa
Görüş mesafesi 10 km veya daha fazla
1500 m altında bulut yok ve kümülonimbus yok

METAR: OJAQ 250900Z 35020KT CAVOK 41/00 Q1006 NOSIG

Saat: 12:28 (09:28 UTC)

Tahmin

Rapor saat 04:50 UTC de 4 saat ve 38 dakika önce yapıldı.
Ayın 25'si saat 06 UTC'den ayın 26'si saat 12 UTC'ye kadar geçerli Tahmin
Rüzgar kuzeydan 10 kt
Görüş mesafesi 10 km veya daha fazla
1500 m altında bulut yok ve kümülonimbus yok
Olasılık 30% :
Geçici
ayın 25'si saat 11 UTC'den ayın 25'si saat 18 UTC'ye kadar
Rüzgar kuzeydan 18 kt
Görüş mesafesi: 5000 m
Toz Pusu,

TAF: OJAQ 250450Z 2506/2612 36010KT CAVOK PROB30 TEMPO 2511/2518 01018KT 5000 HZ

4.000'den fazla havaalanı için hava durumu gözlemleri ve tahminleri (METAR ve TAF raporları).

Kullanılabilir istasyonlar harita üzerinde sarı ve kırmızı noktalarla gösterilir.

İstasyonun adını görmek için fareyi noktanın üzerinde gezdirin.

Sonrasında hava gözlem ve tahminlerini görmek için tıklayın.

Haritayı değiştirmek için: yaklaştırmak için siyah artı işaretli yeşil düğmeye ve uzaklaştırmak için de eksi işaretli düğmeye hızla tıklayın; bitişik haritalar için yeşil okları kullanın.


METAR-TAF: